sensor_id;sensor_type;location;lat;lon;timestamp;temperature;humidity
63260;DHT22;49390;51.380;0.098;2023-02-01T00:01:17;6.30;99.90
63260;DHT22;49390;51.380;0.098;2023-02-01T00:03:48;6.20;99.90
63260;DHT22;49390;51.380;0.098;2023-02-01T00:06:21;6.20;99.90
63260;DHT22;49390;51.380;0.098;2023-02-01T00:08:52;6.20;99.90
63260;DHT22;49390;51.380;0.098;2023-02-01T00:11:21;6.30;99.90
63260;DHT22;49390;51.380;0.098;2023-02-01T00:13:50;6.20;99.90
63260;DHT22;49390;51.380;0.098;2023-02-01T00:16:23;6.20;99.90
63260;DHT22;49390;51.380;0.098;2023-02-01T00:18:58;6.20;99.90
63260;DHT22;49390;51.380;0.098;2023-02-01T00:21:26;6.10;99.90
63260;DHT22;49390;51.380;0.098;2023-02-01T00:23:55;6.10;99.90
63260;DHT22;49390;51.380;0.098;2023-02-01T00:29:04;6.10;99.90
63260;DHT22;49390;51.380;0.098;2023-02-01T00:31:35;6.10;99.90
63260;DHT22;49390;51.380;0.098;2023-02-01T00:34:03;6.00;99.90
63260;DHT22;49390;51.380;0.098;2023-02-01T00:36:31;6.00;99.90
63260;DHT22;49390;51.380;0.098;2023-02-01T00:38:59;6.00;99.90
63260;DHT22;49390;51.380;0.098;2023-02-01T00:41:27;6.00;99.90
63260;DHT22;49390;51.380;0.098;2023-02-01T00:43:56;6.00;99.90
63260;DHT22;49390;51.380;0.098;2023-02-01T00:46:24;6.00;99.90
63260;DHT22;49390;51.380;0.098;2023-02-01T00:48:52;5.90;99.90
63260;DHT22;49390;51.380;0.098;2023-02-01T00:51:25;5.90;99.90
63260;DHT22;49390;51.380;0.098;2023-02-01T00:53:56;5.90;99.90
63260;DHT22;49390;51.380;0.098;2023-02-01T00:56:24;5.90;99.90
63260;DHT22;49390;51.380;0.098;2023-02-01T00:58:52;5.90;99.90
63260;DHT22;49390;51.380;0.098;2023-02-01T01:01:22;5.90;99.90
63260;DHT22;49390;51.380;0.098;2023-02-01T01:03:54;5.90;99.90
63260;DHT22;49390;51.380;0.098;2023-02-01T01:06:28;5.90;99.90
63260;DHT22;49390;51.380;0.098;2023-02-01T01:08:58;5.90;99.90
63260;DHT22;49390;51.380;0.098;2023-02-01T01:11:28;5.90;99.90
63260;DHT22;49390;51.380;0.098;2023-02-01T01:13:58;5.90;99.90
63260;DHT22;49390;51.380;0.098;2023-02-01T01:16:28;5.90;99.90
63260;DHT22;49390;51.380;0.098;2023-02-01T01:19:00;5.90;99.90
63260;DHT22;49390;51.380;0.098;2023-02-01T01:21:28;5.90;99.90
63260;DHT22;49390;51.380;0.098;2023-02-01T01:24:00;5.90;99.90
63260;DHT22;49390;51.380;0.098;2023-02-01T01:26:30;5.90;99.90
63260;DHT22;49390;51.380;0.098;2023-02-01T01:29:01;5.80;99.90
63260;DHT22;49390;51.380;0.098;2023-02-01T01:31:30;5.90;99.90
63260;DHT22;49390;51.380;0.098;2023-02-01T01:33:59;5.80;99.90
63260;DHT22;49390;51.380;0.098;2023-02-01T01:36:28;5.80;99.90
63260;DHT22;49390;51.380;0.098;2023-02-01T01:38:57;5.80;99.90
63260;DHT22;49390;51.380;0.098;2023-02-01T01:41:30;5.90;99.90
63260;DHT22;49390;51.380;0.098;2023-02-01T01:44:06;5.90;99.90
63260;DHT22;49390;51.380;0.098;2023-02-01T01:46:37;5.90;99.90
63260;DHT22;49390;51.380;0.098;2023-02-01T01:51:42;5.90;99.90
63260;DHT22;49390;51.380;0.098;2023-02-01T01:54:25;5.90;99.90
63260;DHT22;49390;51.380;0.098;2023-02-01T01:56:58;5.90;99.90
63260;DHT22;49390;51.380;0.098;2023-02-01T01:59:27;5.90;99.90
63260;DHT22;49390;51.380;0.098;2023-02-01T02:01:55;5.90;99.90
63260;DHT22;49390;51.380;0.098;2023-02-01T02:04:25;5.90;99.90
63260;DHT22;49390;51.380;0.098;2023-02-01T02:07:00;5.90;99.90
63260;DHT22;49390;51.380;0.098;2023-02-01T02:09:29;5.90;99.90
63260;DHT22;49390;51.380;0.098;2023-02-01T02:11:58;5.90;99.90
63260;DHT22;49390;51.380;0.098;2023-02-01T02:14:26;5.90;99.90
63260;DHT22;49390;51.380;0.098;2023-02-01T02:17:28;5.90;99.90
63260;DHT22;49390;51.380;0.098;2023-02-01T02:22:43;5.90;99.90
63260;DHT22;49390;51.380;0.098;2023-02-01T02:26:11;5.90;99.90
63260;DHT22;49390;51.380;0.098;2023-02-01T02:29:42;5.90;99.90
63260;DHT22;49390;51.380;0.098;2023-02-01T02:32:16;5.90;99.90
63260;DHT22;49390;51.380;0.098;2023-02-01T02:37:56;5.90;99.90
63260;DHT22;49390;51.380;0.098;2023-02-01T02:43:23;5.90;99.90
63260;DHT22;49390;51.380;0.098;2023-02-01T02:46:24;5.90;99.90
63260;DHT22;49390;51.380;0.098;2023-02-01T02:49:19;5.90;99.90
63260;DHT22;49390;51.380;0.098;2023-02-01T02:52:02;5.90;99.90
63260;DHT22;49390;51.380;0.098;2023-02-01T02:54:50;5.90;99.90
63260;DHT22;49390;51.380;0.098;2023-02-01T03:00:24;5.90;99.90
63260;DHT22;49390;51.380;0.098;2023-02-01T03:03:13;6.00;99.90
63260;DHT22;49390;51.380;0.098;2023-02-01T03:05:59;6.00;99.90
63260;DHT22;49390;51.380;0.098;2023-02-01T03:08:29;6.00;99.90
63260;DHT22;49390;51.380;0.098;2023-02-01T03:11:09;6.10;99.90
63260;DHT22;49390;51.380;0.098;2023-02-01T03:13:54;6.20;99.90
63260;DHT22;49390;51.380;0.098;2023-02-01T03:16:34;6.20;99.90
63260;DHT22;49390;51.380;0.098;2023-02-01T03:19:11;6.30;99.90
63260;DHT22;49390;51.380;0.098;2023-02-01T03:21:48;6.30;99.90
63260;DHT22;49390;51.380;0.098;2023-02-01T03:24:44;6.30;99.90
63260;DHT22;49390;51.380;0.098;2023-02-01T03:27:36;6.30;99.90
63260;DHT22;49390;51.380;0.098;2023-02-01T03:30:22;6.30;99.90
63260;DHT22;49390;51.380;0.098;2023-02-01T03:32:58;6.30;99.90
63260;DHT22;49390;51.380;0.098;2023-02-01T03:35:40;6.20;99.90
63260;DHT22;49390;51.380;0.098;2023-02-01T03:41:18;6.20;99.90
63260;DHT22;49390;51.380;0.098;2023-02-01T03:47:02;6.20;99.90
63260;DHT22;49390;51.380;0.098;2023-02-01T03:49:35;6.20;99.90
63260;DHT22;49390;51.380;0.098;2023-02-01T03:52:09;6.20;99.90
63260;DHT22;49390;51.380;0.098;2023-02-01T03:54:38;6.20;99.90
63260;DHT22;49390;51.380;0.098;2023-02-01T03:57:25;6.20;99.90
63260;DHT22;49390;51.380;0.098;2023-02-01T04:00:07;6.20;99.90
63260;DHT22;49390;51.380;0.098;2023-02-01T04:02:40;6.20;99.90
63260;DHT22;49390;51.380;0.098;2023-02-01T04:05:11;6.20;99.90
63260;DHT22;49390;51.380;0.098;2023-02-01T04:07:45;6.10;99.90
63260;DHT22;49390;51.380;0.098;2023-02-01T04:10:13;6.10;99.90
63260;DHT22;49390;51.380;0.098;2023-02-01T04:12:41;6.10;99.90
63260;DHT22;49390;51.380;0.098;2023-02-01T04:15:09;6.10;99.90
63260;DHT22;49390;51.380;0.098;2023-02-01T04:17:39;6.10;99.90
63260;DHT22;49390;51.380;0.098;2023-02-01T04:20:10;6.10;99.90
63260;DHT22;49390;51.380;0.098;2023-02-01T04:22:38;6.10;99.90
63260;DHT22;49390;51.380;0.098;2023-02-01T04:25:06;6.10;99.90
63260;DHT22;49390;51.380;0.098;2023-02-01T04:27:35;6.10;99.90
63260;DHT22;49390;51.380;0.098;2023-02-01T04:30:05;6.10;99.90
63260;DHT22;49390;51.380;0.098;2023-02-01T04:32:37;6.10;99.90
63260;DHT22;49390;51.380;0.098;2023-02-01T04:35:07;6.10;99.90
63260;DHT22;49390;51.380;0.098;2023-02-01T04:37:35;6.10;99.90
63260;DHT22;49390;51.380;0.098;2023-02-01T04:40:06;6.10;99.90
63260;DHT22;49390;51.380;0.098;2023-02-01T04:42:34;6.10;99.90
63260;DHT22;49390;51.380;0.098;2023-02-01T04:45:02;6.10;99.90
63260;DHT22;49390;51.380;0.098;2023-02-01T04:47:30;6.30;99.90
63260;DHT22;49390;51.380;0.098;2023-02-01T04:49:58;6.10;99.90
63260;DHT22;49390;51.380;0.098;2023-02-01T04:52:27;6.10;99.90
63260;DHT22;49390;51.380;0.098;2023-02-01T04:54:55;6.10;99.90
63260;DHT22;49390;51.380;0.098;2023-02-01T04:57:26;6.10;99.90
63260;DHT22;49390;51.380;0.098;2023-02-01T04:59:54;6.10;99.90
63260;DHT22;49390;51.380;0.098;2023-02-01T05:02:22;6.10;99.90
63260;DHT22;49390;51.380;0.098;2023-02-01T05:04:50;6.10;99.90
63260;DHT22;49390;51.380;0.098;2023-02-01T05:07:19;6.00;99.90
63260;DHT22;49390;51.380;0.098;2023-02-01T05:09:47;6.10;99.90
63260;DHT22;49390;51.380;0.098;2023-02-01T05:12:14;6.10;99.90
63260;DHT22;49390;51.380;0.098;2023-02-01T05:15:01;6.10;99.90
63260;DHT22;49390;51.380;0.098;2023-02-01T05:17:29;6.10;99.90
63260;DHT22;49390;51.380;0.098;2023-02-01T05:19:59;6.10;99.90
63260;DHT22;49390;51.380;0.098;2023-02-01T05:22:28;6.10;99.90
63260;DHT22;49390;51.380;0.098;2023-02-01T05:24:56;6.10;99.90
63260;DHT22;49390;51.380;0.098;2023-02-01T05:27:24;6.10;99.90
63260;DHT22;49390;51.380;0.098;2023-02-01T05:29:52;6.10;99.90
63260;DHT22;49390;51.380;0.098;2023-02-01T05:32:20;6.20;99.90
63260;DHT22;49390;51.380;0.098;2023-02-01T05:34:50;6.20;99.90
63260;DHT22;49390;51.380;0.098;2023-02-01T05:37:19;6.10;99.90
63260;DHT22;49390;51.380;0.098;2023-02-01T05:39:47;6.20;99.90
63260;DHT22;49390;51.380;0.098;2023-02-01T05:42:15;6.20;99.90
63260;DHT22;49390;51.380;0.098;2023-02-01T05:44:43;6.20;99.90
63260;DHT22;49390;51.380;0.098;2023-02-01T05:47:11;6.20;99.90
63260;DHT22;49390;51.380;0.098;2023-02-01T05:49:40;6.20;99.90
63260;DHT22;49390;51.380;0.098;2023-02-01T05:52:08;6.20;99.90
63260;DHT22;49390;51.380;0.098;2023-02-01T05:54:36;6.20;99.90
63260;DHT22;49390;51.380;0.098;2023-02-01T05:57:03;6.20;99.90
63260;DHT22;49390;51.380;0.098;2023-02-01T05:59:31;6.20;99.90
63260;DHT22;49390;51.380;0.098;2023-02-01T06:01:59;6.20;99.90
63260;DHT22;49390;51.380;0.098;2023-02-01T06:04:27;6.20;99.90
63260;DHT22;49390;51.380;0.098;2023-02-01T06:06:55;6.20;99.90
63260;DHT22;49390;51.380;0.098;2023-02-01T06:09:26;6.20;99.90
63260;DHT22;49390;51.380;0.098;2023-02-01T06:11:55;6.20;99.90
63260;DHT22;49390;51.380;0.098;2023-02-01T06:14:23;6.20;99.90
63260;DHT22;49390;51.380;0.098;2023-02-01T06:16:56;6.20;99.90
63260;DHT22;49390;51.380;0.098;2023-02-01T06:19:24;6.20;99.90
63260;DHT22;49390;51.380;0.098;2023-02-01T06:21:52;6.20;99.90
63260;DHT22;49390;51.380;0.098;2023-02-01T06:24:20;6.20;99.90
63260;DHT22;49390;51.380;0.098;2023-02-01T06:26:48;6.20;99.90
63260;DHT22;49390;51.380;0.098;2023-02-01T06:29:16;6.20;99.90
63260;DHT22;49390;51.380;0.098;2023-02-01T06:31:44;6.20;99.90
63260;DHT22;49390;51.380;0.098;2023-02-01T06:34:12;6.20;99.90
63260;DHT22;49390;51.380;0.098;2023-02-01T06:36:39;6.20;99.90
63260;DHT22;49390;51.380;0.098;2023-02-01T06:39:10;6.30;99.90
63260;DHT22;49390;51.380;0.098;2023-02-01T06:41:40;6.30;99.90
63260;DHT22;49390;51.380;0.098;2023-02-01T06:44:11;6.30;99.90
63260;DHT22;49390;51.380;0.098;2023-02-01T06:46:38;6.20;99.90
63260;DHT22;49390;51.380;0.098;2023-02-01T06:49:07;6.20;99.90
63260;DHT22;49390;51.380;0.098;2023-02-01T06:51:38;6.20;99.90
63260;DHT22;49390;51.380;0.098;2023-02-01T06:54:05;6.20;99.90
63260;DHT22;49390;51.380;0.098;2023-02-01T06:56:33;6.20;99.90
63260;DHT22;49390;51.380;0.098;2023-02-01T06:59:04;6.20;99.90
63260;DHT22;49390;51.380;0.098;2023-02-01T07:01:32;6.20;99.90
63260;DHT22;49390;51.380;0.098;2023-02-01T07:04:00;6.20;99.90
63260;DHT22;49390;51.380;0.098;2023-02-01T07:06:28;6.20;99.90
63260;DHT22;49390;51.380;0.098;2023-02-01T07:08:57;6.20;99.90
63260;DHT22;49390;51.380;0.098;2023-02-01T07:11:25;6.20;99.90
63260;DHT22;49390;51.380;0.098;2023-02-01T07:13:55;6.30;99.90
63260;DHT22;49390;51.380;0.098;2023-02-01T07:16:22;6.20;99.90
63260;DHT22;49390;51.380;0.098;2023-02-01T07:18:52;6.30;99.90
63260;DHT22;49390;51.380;0.098;2023-02-01T07:21:20;6.30;99.90
63260;DHT22;49390;51.380;0.098;2023-02-01T07:23:48;6.30;99.90
63260;DHT22;49390;51.380;0.098;2023-02-01T07:26:16;6.30;99.90
63260;DHT22;49390;51.380;0.098;2023-02-01T07:28:45;6.40;99.90
63260;DHT22;49390;51.380;0.098;2023-02-01T07:31:16;6.40;99.90
63260;DHT22;49390;51.380;0.098;2023-02-01T07:33:47;6.40;99.90
63260;DHT22;49390;51.380;0.098;2023-02-01T07:36:16;6.40;99.90
63260;DHT22;49390;51.380;0.098;2023-02-01T07:38:45;6.40;99.90
63260;DHT22;49390;51.380;0.098;2023-02-01T07:41:17;6.50;99.90
63260;DHT22;49390;51.380;0.098;2023-02-01T07:43:45;6.50;99.90
63260;DHT22;49390;51.380;0.098;2023-02-01T07:46:13;6.50;99.90
63260;DHT22;49390;51.380;0.098;2023-02-01T07:48:43;6.50;99.90
63260;DHT22;49390;51.380;0.098;2023-02-01T07:51:13;6.40;99.90
63260;DHT22;49390;51.380;0.098;2023-02-01T07:53:43;6.50;99.90
63260;DHT22;49390;51.380;0.098;2023-02-01T07:56:22;6.40;99.90
63260;DHT22;49390;51.380;0.098;2023-02-01T07:58:53;6.40;99.90
63260;DHT22;49390;51.380;0.098;2023-02-01T08:01:25;6.40;99.90
63260;DHT22;49390;51.380;0.098;2023-02-01T08:03:58;6.40;99.90
63260;DHT22;49390;51.380;0.098;2023-02-01T08:06:32;6.40;99.90
63260;DHT22;49390;51.380;0.098;2023-02-01T08:09:03;6.40;99.90
63260;DHT22;49390;51.380;0.098;2023-02-01T08:11:31;6.40;99.90
63260;DHT22;49390;51.380;0.098;2023-02-01T08:13:59;6.40;99.90
63260;DHT22;49390;51.380;0.098;2023-02-01T08:16:27;6.40;99.90
63260;DHT22;49390;51.380;0.098;2023-02-01T08:18:55;6.50;99.90
63260;DHT22;49390;51.380;0.098;2023-02-01T08:21:26;6.50;99.90
63260;DHT22;49390;51.380;0.098;2023-02-01T08:23:57;6.50;99.90
63260;DHT22;49390;51.380;0.098;2023-02-01T08:26:40;6.50;99.90
63260;DHT22;49390;51.380;0.098;2023-02-01T08:29:11;6.50;99.90
63260;DHT22;49390;51.380;0.098;2023-02-01T08:31:40;6.50;99.90
63260;DHT22;49390;51.380;0.098;2023-02-01T08:34:09;6.60;99.90
63260;DHT22;49390;51.380;0.098;2023-02-01T08:36:39;6.50;99.90
63260;DHT22;49390;51.380;0.098;2023-02-01T08:39:10;6.60;99.90
63260;DHT22;49390;51.380;0.098;2023-02-01T08:41:40;6.60;99.90
63260;DHT22;49390;51.380;0.098;2023-02-01T08:44:10;6.70;99.90
63260;DHT22;49390;51.380;0.098;2023-02-01T08:46:37;6.70;99.90
63260;DHT22;49390;51.380;0.098;2023-02-01T08:49:05;6.70;99.90
63260;DHT22;49390;51.380;0.098;2023-02-01T08:51:33;6.70;99.90
63260;DHT22;49390;51.380;0.098;2023-02-01T08:54:01;6.70;99.90
63260;DHT22;49390;51.380;0.098;2023-02-01T08:56:29;6.70;99.90
63260;DHT22;49390;51.380;0.098;2023-02-01T08:59:26;6.80;99.90
63260;DHT22;49390;51.380;0.098;2023-02-01T09:01:59;6.70;99.90
63260;DHT22;49390;51.380;0.098;2023-02-01T09:05:11;6.80;99.90
63260;DHT22;49390;51.380;0.098;2023-02-01T09:11:55;6.80;99.90
63260;DHT22;49390;51.380;0.098;2023-02-01T09:17:34;6.90;99.90
63260;DHT22;49390;51.380;0.098;2023-02-01T09:23:19;7.10;99.90
63260;DHT22;49390;51.380;0.098;2023-02-01T09:35:20;7.60;99.90
63260;DHT22;49390;51.380;0.098;2023-02-01T09:37:49;7.80;99.90
63260;DHT22;49390;51.380;0.098;2023-02-01T09:40:22;7.70;99.90
63260;DHT22;49390;51.380;0.098;2023-02-01T09:48:36;8.10;99.90
63260;DHT22;49390;51.380;0.098;2023-02-01T09:51:16;8.10;99.90
63260;DHT22;49390;51.380;0.098;2023-02-01T09:53:48;8.10;99.90
63260;DHT22;49390;51.380;0.098;2023-02-01T09:56:26;8.10;99.90
63260;DHT22;49390;51.380;0.098;2023-02-01T09:59:08;8.10;99.90
63260;DHT22;49390;51.380;0.098;2023-02-01T10:01:37;8.10;99.90
63260;DHT22;49390;51.380;0.098;2023-02-01T10:04:08;8.10;99.90
63260;DHT22;49390;51.380;0.098;2023-02-01T10:10:15;8.20;99.90
63260;DHT22;49390;51.380;0.098;2023-02-01T10:13:45;8.30;99.90
63260;DHT22;49390;51.380;0.098;2023-02-01T10:19:03;8.30;99.90
63260;DHT22;49390;51.380;0.098;2023-02-01T10:22:18;8.40;99.90
63260;DHT22;49390;51.380;0.098;2023-02-01T10:25:26;8.40;99.90
63260;DHT22;49390;51.380;0.098;2023-02-01T10:27:57;8.50;99.90
63260;DHT22;49390;51.380;0.098;2023-02-01T10:30:33;8.60;99.90
63260;DHT22;49390;51.380;0.098;2023-02-01T10:33:26;8.60;99.90
63260;DHT22;49390;51.380;0.098;2023-02-01T10:36:00;8.20;99.90
63260;DHT22;49390;51.380;0.098;2023-02-01T10:38:32;8.70;99.90
63260;DHT22;49390;51.380;0.098;2023-02-01T10:41:13;8.80;99.90
63260;DHT22;49390;51.380;0.098;2023-02-01T10:43:44;8.80;99.90
63260;DHT22;49390;51.380;0.098;2023-02-01T10:46:13;8.80;99.90
63260;DHT22;49390;51.380;0.098;2023-02-01T10:48:41;8.90;99.90
63260;DHT22;49390;51.380;0.098;2023-02-01T10:51:22;8.90;99.90
63260;DHT22;49390;51.380;0.098;2023-02-01T10:54:38;9.00;99.90
63260;DHT22;49390;51.380;0.098;2023-02-01T10:56:49;9.10;99.90
63260;DHT22;49390;51.380;0.098;2023-02-01T10:59:19;9.10;99.90
63260;DHT22;49390;51.380;0.098;2023-02-01T11:01:49;9.10;99.90
63260;DHT22;49390;51.380;0.098;2023-02-01T11:04:19;9.20;99.90
63260;DHT22;49390;51.380;0.098;2023-02-01T11:09:21;9.20;99.90
63260;DHT22;49390;51.380;0.098;2023-02-01T11:14:20;9.20;99.90
63260;DHT22;49390;51.380;0.098;2023-02-01T11:19:37;9.10;99.90
63260;DHT22;49390;51.380;0.098;2023-02-01T11:22:06;9.20;99.90
63260;DHT22;49390;51.380;0.098;2023-02-01T11:24:36;9.20;99.90
63260;DHT22;49390;51.380;0.098;2023-02-01T11:27:14;9.30;99.90
63260;DHT22;49390;51.380;0.098;2023-02-01T11:29:58;9.40;99.90
63260;DHT22;49390;51.380;0.098;2023-02-01T11:32:28;9.50;99.90
63260;DHT22;49390;51.380;0.098;2023-02-01T11:35:02;9.60;99.90
63260;DHT22;49390;51.380;0.098;2023-02-01T11:37:38;9.80;99.90
63260;DHT22;49390;51.380;0.098;2023-02-01T11:42:59;10.00;99.90
63260;DHT22;49390;51.380;0.098;2023-02-01T11:45:30;10.10;99.90
63260;DHT22;49390;51.380;0.098;2023-02-01T11:47:59;10.20;99.90
63260;DHT22;49390;51.380;0.098;2023-02-01T12:06:56;10.30;99.90
63260;DHT22;49390;51.380;0.098;2023-02-01T12:09:43;10.40;99.90
63260;DHT22;49390;51.380;0.098;2023-02-01T12:15:31;10.50;99.40
63260;DHT22;49390;51.380;0.098;2023-02-01T12:41:57;10.70;95.80
63260;DHT22;49390;51.380;0.098;2023-02-01T12:50:29;10.70;95.50
63260;DHT22;49390;51.380;0.098;2023-02-01T12:53:19;10.70;95.40
63260;DHT22;49390;51.380;0.098;2023-02-01T12:55:55;10.80;95.50
63260;DHT22;49390;51.380;0.098;2023-02-01T12:58:51;10.90;95.50
63260;DHT22;49390;51.380;0.098;2023-02-01T13:01:35;10.90;94.70
63260;DHT22;49390;51.380;0.098;2023-02-01T13:04:28;11.00;94.20
63260;DHT22;49390;51.380;0.098;2023-02-01T13:07:10;11.00;93.90
63260;DHT22;49390;51.380;0.098;2023-02-01T13:12:22;11.20;93.70
63260;DHT22;49390;51.380;0.098;2023-02-01T13:17:47;11.40;91.60
63260;DHT22;49390;51.380;0.098;2023-02-01T13:20:29;11.60;91.20
63260;DHT22;49390;51.380;0.098;2023-02-01T13:25:57;11.70;90.50
63260;DHT22;49390;51.380;0.098;2023-02-01T13:44:37;11.60;87.90
63260;DHT22;49390;51.380;0.098;2023-02-01T13:47:31;11.60;88.30
63260;DHT22;49390;51.380;0.098;2023-02-01T13:50:19;11.60;88.20
63260;DHT22;49390;51.380;0.098;2023-02-01T13:53:03;11.60;88.20
63260;DHT22;49390;51.380;0.098;2023-02-01T13:55:35;11.60;87.60
63260;DHT22;49390;51.380;0.098;2023-02-01T14:00:48;11.50;88.30
63260;DHT22;49390;51.380;0.098;2023-02-01T14:03:22;11.50;88.50
63260;DHT22;49390;51.380;0.098;2023-02-01T14:19:38;11.50;89.40
63260;DHT22;49390;51.380;0.098;2023-02-01T14:24:53;11.50;88.90
63260;DHT22;49390;51.380;0.098;2023-02-01T14:27:28;11.40;88.60
63260;DHT22;49390;51.380;0.098;2023-02-01T14:29:59;11.40;88.80
63260;DHT22;49390;51.380;0.098;2023-02-01T14:32:33;11.40;88.90
63260;DHT22;49390;51.380;0.098;2023-02-01T14:35:05;11.50;89.40
63260;DHT22;49390;51.380;0.098;2023-02-01T14:37:36;11.40;89.20
63260;DHT22;49390;51.380;0.098;2023-02-01T14:40:26;11.40;89.10
63260;DHT22;49390;51.380;0.098;2023-02-01T14:42:55;11.40;89.40
63260;DHT22;49390;51.380;0.098;2023-02-01T14:50:44;11.30;89.70
63260;DHT22;49390;51.380;0.098;2023-02-01T14:53:27;11.30;90.10
63260;DHT22;49390;51.380;0.098;2023-02-01T14:56:15;11.40;90.10
63260;DHT22;49390;51.380;0.098;2023-02-01T14:59:08;11.30;90.20
63260;DHT22;49390;51.380;0.098;2023-02-01T15:01:49;11.40;90.40
63260;DHT22;49390;51.380;0.098;2023-02-01T15:04:19;11.40;90.10
63260;DHT22;49390;51.380;0.098;2023-02-01T15:14:47;11.30;90.70
63260;DHT22;49390;51.380;0.098;2023-02-01T15:17:21;11.30;90.60
63260;DHT22;49390;51.380;0.098;2023-02-01T15:19:58;11.30;91.00
63260;DHT22;49390;51.380;0.098;2023-02-01T15:22:30;11.30;91.30
63260;DHT22;49390;51.380;0.098;2023-02-01T15:25:00;11.20;91.60
63260;DHT22;49390;51.380;0.098;2023-02-01T15:27:36;11.20;92.10
63260;DHT22;49390;51.380;0.098;2023-02-01T15:30:29;11.20;91.80
63260;DHT22;49390;51.380;0.098;2023-02-01T15:35:44;11.10;91.80
63260;DHT22;49390;51.380;0.098;2023-02-01T15:41:00;11.00;92.20
63260;DHT22;49390;51.380;0.098;2023-02-01T15:43:37;11.00;92.20
63260;DHT22;49390;51.380;0.098;2023-02-01T15:46:15;10.90;92.50
63260;DHT22;49390;51.380;0.098;2023-02-01T15:48:50;10.90;92.50
63260;DHT22;49390;51.380;0.098;2023-02-01T15:51:23;10.80;92.80
63260;DHT22;49390;51.380;0.098;2023-02-01T15:54:06;10.80;93.00
63260;DHT22;49390;51.380;0.098;2023-02-01T15:56:38;10.90;93.30
63260;DHT22;49390;51.380;0.098;2023-02-01T15:59:16;10.80;93.50
63260;DHT22;49390;51.380;0.098;2023-02-01T16:01:44;10.80;93.70
63260;DHT22;49390;51.380;0.098;2023-02-01T16:06:48;10.80;94.10
63260;DHT22;49390;51.380;0.098;2023-02-01T16:09:19;10.70;94.60
63260;DHT22;49390;51.380;0.098;2023-02-01T16:14:16;10.70;95.50
63260;DHT22;49390;51.380;0.098;2023-02-01T16:16:44;10.70;96.10
63260;DHT22;49390;51.380;0.098;2023-02-01T16:19:12;10.60;96.50
63260;DHT22;49390;51.380;0.098;2023-02-01T16:21:40;10.60;97.20
63260;DHT22;49390;51.380;0.098;2023-02-01T16:24:09;10.60;97.90
63260;DHT22;49390;51.380;0.098;2023-02-01T16:26:36;10.60;98.60
63260;DHT22;49390;51.380;0.098;2023-02-01T16:29:06;10.50;99.10
63260;DHT22;49390;51.380;0.098;2023-02-01T16:31:38;10.50;99.80
63260;DHT22;49390;51.380;0.098;2023-02-01T16:34:14;10.50;99.90
63260;DHT22;49390;51.380;0.098;2023-02-01T16:36:47;10.40;99.90
63260;DHT22;49390;51.380;0.098;2023-02-01T16:39:20;10.40;99.90
63260;DHT22;49390;51.380;0.098;2023-02-01T16:41:48;10.40;99.90
63260;DHT22;49390;51.380;0.098;2023-02-01T16:44:16;10.30;99.90
63260;DHT22;49390;51.380;0.098;2023-02-01T16:46:46;10.30;99.90
63260;DHT22;49390;51.380;0.098;2023-02-01T16:49:24;10.30;99.90
63260;DHT22;49390;51.380;0.098;2023-02-01T16:51:56;10.30;99.90
63260;DHT22;49390;51.380;0.098;2023-02-01T16:54:25;10.30;99.90
63260;DHT22;49390;51.380;0.098;2023-02-01T16:56:54;10.20;99.90
63260;DHT22;49390;51.380;0.098;2023-02-01T16:59:22;10.20;99.90
63260;DHT22;49390;51.380;0.098;2023-02-01T17:01:52;10.20;99.90
63260;DHT22;49390;51.380;0.098;2023-02-01T17:04:20;10.20;99.90
63260;DHT22;49390;51.380;0.098;2023-02-01T17:06:49;10.20;99.90
63260;DHT22;49390;51.380;0.098;2023-02-01T17:09:17;10.20;99.90
63260;DHT22;49390;51.380;0.098;2023-02-01T17:11:45;10.20;99.90
63260;DHT22;49390;51.380;0.098;2023-02-01T17:14:16;10.10;99.90
63260;DHT22;49390;51.380;0.098;2023-02-01T17:16:46;10.10;99.90
63260;DHT22;49390;51.380;0.098;2023-02-01T17:19:16;10.10;99.90
63260;DHT22;49390;51.380;0.098;2023-02-01T17:21:47;10.10;99.90
63260;DHT22;49390;51.380;0.098;2023-02-01T17:24:23;10.10;99.90
63260;DHT22;49390;51.380;0.098;2023-02-01T17:26:56;10.10;99.90
63260;DHT22;49390;51.380;0.098;2023-02-01T17:29:24;10.10;99.90
63260;DHT22;49390;51.380;0.098;2023-02-01T17:31:57;10.10;99.90
63260;DHT22;49390;51.380;0.098;2023-02-01T17:34:41;10.00;99.90
63260;DHT22;49390;51.380;0.098;2023-02-01T17:37:28;10.00;99.90
63260;DHT22;49390;51.380;0.098;2023-02-01T17:39:57;10.00;99.90
63260;DHT22;49390;51.380;0.098;2023-02-01T17:42:27;10.00;99.90
63260;DHT22;49390;51.380;0.098;2023-02-01T17:47:52;10.00;99.90
63260;DHT22;49390;51.380;0.098;2023-02-01T17:50:21;10.00;99.90
63260;DHT22;49390;51.380;0.098;2023-02-01T17:52:49;9.90;99.90
63260;DHT22;49390;51.380;0.098;2023-02-01T17:55:20;9.90;99.90
63260;DHT22;49390;51.380;0.098;2023-02-01T17:57:50;9.90;99.90
63260;DHT22;49390;51.380;0.098;2023-02-01T18:00:19;9.80;99.90
63260;DHT22;49390;51.380;0.098;2023-02-01T18:02:47;9.80;99.90
63260;DHT22;49390;51.380;0.098;2023-02-01T18:07:49;9.70;99.90
63260;DHT22;49390;51.380;0.098;2023-02-01T18:10:18;9.70;99.90
63260;DHT22;49390;51.380;0.098;2023-02-01T18:12:45;9.70;99.90
63260;DHT22;49390;51.380;0.098;2023-02-01T18:15:16;9.70;99.90
63260;DHT22;49390;51.380;0.098;2023-02-01T18:17:45;9.70;99.90
63260;DHT22;49390;51.380;0.098;2023-02-01T18:20:21;9.70;99.90
63260;DHT22;49390;51.380;0.098;2023-02-01T18:22:50;9.70;99.90
63260;DHT22;49390;51.380;0.098;2023-02-01T18:25:22;9.70;99.90
63260;DHT22;49390;51.380;0.098;2023-02-01T18:27:53;9.70;99.90
63260;DHT22;49390;51.380;0.098;2023-02-01T18:30:24;9.70;99.90
63260;DHT22;49390;51.380;0.098;2023-02-01T18:32:52;9.70;99.90
63260;DHT22;49390;51.380;0.098;2023-02-01T18:35:23;9.70;99.90
63260;DHT22;49390;51.380;0.098;2023-02-01T18:37:54;9.70;99.90
63260;DHT22;49390;51.380;0.098;2023-02-01T18:40:26;9.70;99.90
63260;DHT22;49390;51.380;0.098;2023-02-01T18:42:55;9.60;99.90
63260;DHT22;49390;51.380;0.098;2023-02-01T18:48:06;9.60;99.90
63260;DHT22;49390;51.380;0.098;2023-02-01T18:50:37;9.60;99.90
63260;DHT22;49390;51.380;0.098;2023-02-01T18:53:15;9.60;99.90
63260;DHT22;49390;51.380;0.098;2023-02-01T18:55:43;9.60;99.90
63260;DHT22;49390;51.380;0.098;2023-02-01T18:58:14;9.50;99.90
63260;DHT22;49390;51.380;0.098;2023-02-01T19:00:44;9.50;99.90
63260;DHT22;49390;51.380;0.098;2023-02-01T19:03:13;9.50;99.90
63260;DHT22;49390;51.380;0.098;2023-02-01T19:05:42;9.40;99.90
63260;DHT22;49390;51.380;0.098;2023-02-01T19:08:12;9.40;99.90
63260;DHT22;49390;51.380;0.098;2023-02-01T19:10:41;9.40;99.90
63260;DHT22;49390;51.380;0.098;2023-02-01T19:13:10;9.40;99.90
63260;DHT22;49390;51.380;0.098;2023-02-01T19:15:42;9.40;99.90
63260;DHT22;49390;51.380;0.098;2023-02-01T19:18:11;9.30;99.90
63260;DHT22;49390;51.380;0.098;2023-02-01T19:20:39;9.30;99.90
63260;DHT22;49390;51.380;0.098;2023-02-01T19:23:13;9.30;99.90
63260;DHT22;49390;51.380;0.098;2023-02-01T19:25:43;9.30;99.90
63260;DHT22;49390;51.380;0.098;2023-02-01T19:28:12;9.30;99.90
63260;DHT22;49390;51.380;0.098;2023-02-01T19:30:40;9.20;99.90